Buoy 51627

sailwx.info

Track history (hours):
 
Tides and Currents Weather Stations Pressure Air Temp Water Temp Dewpoint Dewpoint Depression Visibility Wind Speed Wind Dir Waves Ship Positions

Drifting buoy 51627

Last reported at 2016-Aug-24 18:00 UTC. Time now 2016-Aug-24 21:31 UTC.
Position N 18°12' E 129°17'.

Water temperature 30.1 ° C

Date/timePositionNaut miles runAvg speedWind from/ knotsBaromVisibWave heightAir tempDewpointWater temp
2016-Aug-24 18:00N 18°12' E 129°17'3 3.2 30.1
2016-Aug-24 17:00N 18°10' E 129°18'0 0.0 30.1
2016-Aug-24 16:00N 18°10' E 129°18'1 0.2 30.1
2016-Aug-24 12:00N 18°09' E 129°19'0 0.2 30.1
2016-Aug-24 10:00N 18°09' E 129°20'0 0.1 30.1
2016-Aug-24 08:00N 18°09' E 129°20'1 0.2 30.1
2016-Aug-24 05:00N 18°09' E 129°20'4 0.5 30.1
2016-Aug-23 22:00N 18°06' E 129°23'0 0.3 30.1
2016-Aug-23 21:00N 18°06' E 129°23'2 0.6 30.1
2016-Aug-23 18:00N 18°04' E 129°23'0 0.0 30.1
2016-Aug-23 17:00N 18°04' E 129°23'2 0.4 30.1
2016-Aug-23 13:00N 18°03' E 129°25'0 0.2 30.2
2016-Aug-23 12:00N 18°04' E 129°25'0 0.0 30.2
2016-Aug-23 11:00N 18°04' E 129°25'0 0.1 30.2
2016-Aug-23 10:00N 18°04' E 129°25'1 0.6 30.2
2016-Aug-23 09:00N 18°04' E 129°24'5 0.9 30.2
2016-Aug-23 04:00N 18°00' E 129°21'3 0.5 30.2
2016-Aug-22 22:00N 17°57' E 129°22'1 0.9 30.1
2016-Aug-22 21:00N 17°56' E 129°22'2 2.0 30.1
2016-Aug-22 20:00N 17°54' E 129°23'0 0.3 30.1
2016-Aug-22 19:00N 17°55' E 129°23'2 1.7 30.1
2016-Aug-22 18:00N 17°53' E 129°24'0 0.0 30.1
2016-Aug-22 17:00N 17°53' E 129°24'3 0.6 30.1
2016-Aug-22 13:00N 17°51' E 129°26'1 1.2 30.2
2016-Aug-22 12:00N 17°51' E 129°27'0 0.0 30.2
2016-Aug-22 11:00N 17°51' E 129°27'2 0.8 30.2
2016-Aug-22 09:00N 17°50' E 129°26'0 0.0 30.2
2016-Aug-22 08:00N 17°50' E 129°26'1 1.4 30.3
2016-Aug-22 07:00N 17°49' E 129°24'2 2.0 30.3
2016-Aug-22 06:00N 17°47' E 129°24'0 0.0 30.4
2016-Aug-22 04:00N 17°47' E 129°24'3 1.6 30.3
2016-Aug-22 02:00N 17°44' E 129°25'1 1.1 30.2
2016-Aug-22 01:00N 17°44' E 129°26'0 0.0 30.1
2016-Aug-22 00:00N 17°44' E 129°26'1 1.4 30.1
2016-Aug-21 23:00N 17°42' E 129°27'1 0.7 30.1
2016-Aug-21 22:00N 17°42' E 129°27'1 0.8 30.1
2016-Aug-21 21:00N 17°41' E 129°27'1 1.2 30.1
2016-Aug-21 20:00N 17°40' E 129°28'2 2.0 30.1
2016-Aug-21 19:00N 17°38' E 129°28'0 0.0 30.1
2016-Aug-21 18:00N 17°38' E 129°28'0 0.0 30.2
2016-Aug-21 17:00N 17°38' E 129°28'4 1.1 30.2
2016-Aug-21 13:00N 17°34' E 129°29'1 0.6 30.2
2016-Aug-21 12:00N 17°33' E 129°30'3 1.5 30.2
2016-Aug-21 10:00N 17°31' E 129°28'0 0.2 30.3
2016-Aug-21 09:00N 17°31' E 129°28'3 1.1 30.3
2016-Aug-21 06:00N 17°28' E 129°28'3 1.3 30.3
2016-Aug-21 04:00N 17°25' E 129°29'7 2.3 30.4
2016-Aug-21 01:00N 17°20' E 129°33'2 2.2 30.1
2016-Aug-21 00:00N 17°18' E 129°34'1 0.7 30.1
2016-Aug-20 22:00N 17°17' E 129°36'1 0.6 30.0
2016-Aug-20 21:00N 17°17' E 129°36'1 1.3 30.0
2016-Aug-20 20:00N 17°16' E 129°37'2 1.8 30.0
2016-Aug-20 19:00N 17°15' E 129°38'0 0.1 30.0
2016-Aug-20 17:00N 17°15' E 129°38'3 0.6 30.0
2016-Aug-20 13:00N 17°14' E 129°41'0 0.3 30.1
2016-Aug-20 12:00N 17°14' E 129°41'0 0.4 30.1
2016-Aug-20 11:00N 17°14' E 129°41'1 0.5 30.1
2016-Aug-20 09:00N 17°13' E 129°40'1 1.3 30.1
2016-Aug-20 08:00N 17°12' E 129°40'1 0.6 30.1
2016-Aug-20 06:00N 17°11' E 129°40'3 3.3 30.1
2016-Aug-20 05:00N 17°08' E 129°41'0 0.1 30.1
2016-Aug-20 02:00N 17°08' E 129°41'0 0.0 30.0
2016-Aug-20 01:00N 17°08' E 129°41'1 1.4 30.0
2016-Aug-20 00:00N 17°07' E 129°41'2 0.8 30.0
2016-Aug-19 22:00N 17°05' E 129°42'1 0.8 30.0
2016-Aug-19 21:00N 17°05' E 129°43'2 2.3 30.0
2016-Aug-19 20:00N 17°03' E 129°44'0 0.0 30.0
2016-Aug-19 19:00N 17°03' E 129°44'0 0.0 30.0
2016-Aug-19 18:00N 17°03' E 129°44'0 0.2 30.0
2016-Aug-19 17:00N 17°03' E 129°44'2 0.4 30.0
2016-Aug-19 12:00N 17°01' E 129°45'1 0.9 30.1
2016-Aug-19 11:00N 17°01' E 129°46'0 0.5 30.1
2016-Aug-19 10:00N 17°00' E 129°46'1 0.9 30.1
2016-Aug-19 09:00N 16°60' E 129°47'1 0.8 30.1
2016-Aug-19 08:00N 16°59' E 129°47'1 0.9 30.2
2016-Aug-19 07:00N 16°58' E 129°47'2 0.8 30.2
2016-Aug-19 05:00N 16°57' E 129°48'2 0.3 30.2
2016-Aug-18 22:00N 16°55' E 129°50'1 1.0 30.0
2016-Aug-18 21:00N 16°55' E 129°51'1 0.6 30.0
2016-Aug-18 20:00N 16°56' E 129°52'0 0.0 30.0
2016-Aug-18 18:00N 16°56' E 129°52'0 0.0 30.0
2016-Aug-18 17:00N 16°56' E 129°52'2 0.4 30.0
2016-Aug-18 13:00N 16°56' E 129°50'0 0.2 30.1
2016-Aug-18 12:00N 16°57' E 129°50'1 0.9 30.1
2016-Aug-18 11:00N 16°57' E 129°49'2 0.9 30.1
2016-Aug-18 09:00N 16°56' E 129°49'2 1.1 30.1
2016-Aug-18 07:00N 16°54' E 129°47'5 0.5 30.2
2016-Aug-17 22:00N 16°49' E 129°47'1 0.5 30.0
2016-Aug-17 20:00N 16°49' E 129°48'1 0.7 30.0
2016-Aug-17 18:00N 16°48' E 129°49'1 0.1 30.0
2016-Aug-17 13:00N 16°49' E 129°49'0 0.1 30.0
2016-Aug-17 10:00N 16°49' E 129°50'0 0.1 30.1
2016-Aug-17 08:00N 16°49' E 129°49'2 0.8 30.1
2016-Aug-17 05:00N 16°49' E 129°47'0 0.1 30.2
2016-Aug-17 01:00N 16°49' E 129°47'0 0.2 30.1
2016-Aug-16 22:00N 16°48' E 129°46'0 0.1 30.1
2016-Aug-16 18:00N 16°49' E 129°46'2 0.4 30.1
2016-Aug-16 13:00N 16°49' E 129°44'0 0.3 30.2
2016-Aug-16 12:00N 16°49' E 129°44'0 0.1 30.2
2016-Aug-16 10:00N 16°49' E 129°44'1 0.7 30.2
2016-Aug-16 09:00N 16°48' E 129°43'0 0.1 -0.0
2016-Aug-16 08:00N 16°48' E 129°43'1 0.4 30.2
2016-Aug-16 06:00N 16°48' E 129°43'0 0.0 30.2
2016-Aug-16 05:00N 16°48' E 129°43'0 0.1 30.2
2016-Aug-16 00:00N 16°48' E 129°42'1 0.4 30.1
2016-Aug-15 22:00N 16°49' E 129°42'0 0.3 30.1
2016-Aug-15 21:00N 16°49' E 129°43'2 1.5 30.1
2016-Aug-15 20:00N 16°50' E 129°42'0 0.0 30.1
2016-Aug-15 18:00N 16°50' E 129°42'0 0.2 30.2
2016-Aug-15 17:00N 16°50' E 129°42'0 0.0 30.2
2016-Aug-15 16:00N 16°50' E 129°42'3 0.9 30.2
2016-Aug-15 13:00N 16°52' E 129°40'1 1.0 30.2
2016-Aug-15 12:00N 16°52' E 129°39'0 0.2 30.2
2016-Aug-15 10:00N 16°52' E 129°38'0 0.4 30.3
2016-Aug-15 09:00N 16°52' E 129°38'1 0.9 30.4
2016-Aug-15 08:00N 16°52' E 129°37'1 0.5 30.4
2016-Aug-15 06:00N 16°51' E 129°37'1 0.2 30.5
2016-Aug-15 02:00N 16°51' E 129°38'0 0.0 30.5
2016-Aug-15 01:00N 16°51' E 129°38'1 0.4 30.5
2016-Aug-14 22:00N 16°52' E 129°38'1 0.5 30.2
2016-Aug-14 21:00N 16°52' E 129°39'1 1.5 30.2
2016-Aug-14 20:00N 16°53' E 129°38'1 0.3 30.2
2016-Aug-14 18:00N 16°54' E 129°39'   30.3
Track history (hours):
 
Tides and Currents Weather Stations Pressure Air Temp Water Temp Dewpoint Dewpoint Depression Visibility Wind Speed Wind Dir Waves Ship Positions

Drifting buoy 51627

Last reported at 2016-Aug-24 18:00 UTC. Time now 2016-Aug-24 21:31 UTC.
Position N 18°12' E 129°17'.

Water temperature 30.1 ° C

Date/timePositionNaut miles runAvg speedWind from/ knotsBaromVisibWave heightAir tempDewpointWater temp
2016-Aug-24 18:00N 18°12' E 129°17'3 3.2 30.1
2016-Aug-24 17:00N 18°10' E 129°18'0 0.0 30.1
2016-Aug-24 16:00N 18°10' E 129°18'1 0.2 30.1
2016-Aug-24 12:00N 18°09' E 129°19'0 0.2 30.1
2016-Aug-24 10:00N 18°09' E 129°20'0 0.1 30.1
2016-Aug-24 08:00N 18°09' E 129°20'1 0.2 30.1
2016-Aug-24 05:00N 18°09' E 129°20'4 0.5 30.1
2016-Aug-23 22:00N 18°06' E 129°23'0 0.3 30.1
2016-Aug-23 21:00N 18°06' E 129°23'2 0.6 30.1
2016-Aug-23 18:00N 18°04' E 129°23'0 0.0 30.1
2016-Aug-23 17:00N 18°04' E 129°23'2 0.4 30.1
2016-Aug-23 13:00N 18°03' E 129°25'0 0.2 30.2
2016-Aug-23 12:00N 18°04' E 129°25'0 0.0 30.2
2016-Aug-23 11:00N 18°04' E 129°25'0 0.1 30.2
2016-Aug-23 10:00N 18°04' E 129°25'1 0.6 30.2
2016-Aug-23 09:00N 18°04' E 129°24'5 0.9 30.2
2016-Aug-23 04:00N 18°00' E 129°21'3 0.5 30.2
2016-Aug-22 22:00N 17°57' E 129°22'1 0.9 30.1
2016-Aug-22 21:00N 17°56' E 129°22'2 2.0 30.1
2016-Aug-22 20:00N 17°54' E 129°23'0 0.3 30.1
2016-Aug-22 19:00N 17°55' E 129°23'2 1.7 30.1
2016-Aug-22 18:00N 17°53' E 129°24'0 0.0 30.1
2016-Aug-22 17:00N 17°53' E 129°24'3 0.6 30.1
2016-Aug-22 13:00N 17°51' E 129°26'1 1.2 30.2
2016-Aug-22 12:00N 17°51' E 129°27'0 0.0 30.2
2016-Aug-22 11:00N 17°51' E 129°27'2 0.8 30.2
2016-Aug-22 09:00N 17°50' E 129°26'0 0.0 30.2
2016-Aug-22 08:00N 17°50' E 129°26'1 1.4 30.3
2016-Aug-22 07:00N 17°49' E 129°24'2 2.0 30.3
2016-Aug-22 06:00N 17°47' E 129°24'0 0.0 30.4
2016-Aug-22 04:00N 17°47' E 129°24'3 1.6 30.3
2016-Aug-22 02:00N 17°44' E 129°25'1 1.1 30.2
2016-Aug-22 01:00N 17°44' E 129°26'0 0.0 30.1
2016-Aug-22 00:00N 17°44' E 129°26'1 1.4 30.1
2016-Aug-21 23:00N 17°42' E 129°27'1 0.7 30.1
2016-Aug-21 22:00N 17°42' E 129°27'1 0.8 30.1
2016-Aug-21 21:00N 17°41' E 129°27'1 1.2 30.1
2016-Aug-21 20:00N 17°40' E 129°28'2 2.0 30.1
2016-Aug-21 19:00N 17°38' E 129°28'0 0.0 30.1
2016-Aug-21 18:00N 17°38' E 129°28'0 0.0 30.2
2016-Aug-21 17:00N 17°38' E 129°28'4 1.1 30.2
2016-Aug-21 13:00N 17°34' E 129°29'1 0.6 30.2
2016-Aug-21 12:00N 17°33' E 129°30'3 1.5 30.2
2016-Aug-21 10:00N 17°31' E 129°28'0 0.2 30.3
2016-Aug-21 09:00N 17°31' E 129°28'3 1.1 30.3
2016-Aug-21 06:00N 17°28' E 129°28'3 1.3 30.3
2016-Aug-21 04:00N 17°25' E 129°29'7 2.3 30.4
2016-Aug-21 01:00N 17°20' E 129°33'2 2.2 30.1
2016-Aug-21 00:00N 17°18' E 129°34'1 0.7 30.1
2016-Aug-20 22:00N 17°17' E 129°36'1 0.6 30.0
2016-Aug-20 21:00N 17°17' E 129°36'1 1.3 30.0
2016-Aug-20 20:00N 17°16' E 129°37'2 1.8 30.0
2016-Aug-20 19:00N 17°15' E 129°38'0 0.1 30.0
2016-Aug-20 17:00N 17°15' E 129°38'3 0.6 30.0
2016-Aug-20 13:00N 17°14' E 129°41'0 0.3 30.1
2016-Aug-20 12:00N 17°14' E 129°41'0 0.4 30.1
2016-Aug-20 11:00N 17°14' E 129°41'1 0.5 30.1
2016-Aug-20 09:00N 17°13' E 129°40'1 1.3 30.1
2016-Aug-20 08:00N 17°12' E 129°40'1 0.6 30.1
2016-Aug-20 06:00N 17°11' E 129°40'3 3.3 30.1
2016-Aug-20 05:00N 17°08' E 129°41'0 0.1 30.1
2016-Aug-20 02:00N 17°08' E 129°41'0 0.0 30.0
2016-Aug-20 01:00N 17°08' E 129°41'1 1.4 30.0
2016-Aug-20 00:00N 17°07' E 129°41'2 0.8 30.0
2016-Aug-19 22:00N 17°05' E 129°42'1 0.8 30.0
2016-Aug-19 21:00N 17°05' E 129°43'2 2.3 30.0
2016-Aug-19 20:00N 17°03' E 129°44'0 0.0 30.0
2016-Aug-19 19:00N 17°03' E 129°44'0 0.0 30.0
2016-Aug-19 18:00N 17°03' E 129°44'0 0.2 30.0
2016-Aug-19 17:00N 17°03' E 129°44'2 0.4 30.0
2016-Aug-19 12:00N 17°01' E 129°45'1 0.9 30.1
2016-Aug-19 11:00N 17°01' E 129°46'0 0.5 30.1
2016-Aug-19 10:00N 17°00' E 129°46'1 0.9 30.1
2016-Aug-19 09:00N 16°60' E 129°47'1 0.8 30.1
2016-Aug-19 08:00N 16°59' E 129°47'1 0.9 30.2
2016-Aug-19 07:00N 16°58' E 129°47'2 0.8 30.2
2016-Aug-19 05:00N 16°57' E 129°48'2 0.3 30.2
2016-Aug-18 22:00N 16°55' E 129°50'1 1.0 30.0
2016-Aug-18 21:00N 16°55' E 129°51'1 0.6 30.0
2016-Aug-18 20:00N 16°56' E 129°52'0 0.0 30.0
2016-Aug-18 18:00N 16°56' E 129°52'0 0.0 30.0
2016-Aug-18 17:00N 16°56' E 129°52'2 0.4 30.0
2016-Aug-18 13:00N 16°56' E 129°50'0 0.2 30.1
2016-Aug-18 12:00N 16°57' E 129°50'1 0.9 30.1
2016-Aug-18 11:00N 16°57' E 129°49'2 0.9 30.1
2016-Aug-18 09:00N 16°56' E 129°49'2 1.1 30.1
2016-Aug-18 07:00N 16°54' E 129°47'5 0.5 30.2
2016-Aug-17 22:00N 16°49' E 129°47'1 0.5 30.0
2016-Aug-17 20:00N 16°49' E 129°48'1 0.7 30.0
2016-Aug-17 18:00N 16°48' E 129°49'1 0.1 30.0
2016-Aug-17 13:00N 16°49' E 129°49'0 0.1 30.0
2016-Aug-17 10:00N 16°49' E 129°50'0 0.1 30.1
2016-Aug-17 08:00N 16°49' E 129°49'2 0.8 30.1
2016-Aug-17 05:00N 16°49' E 129°47'0 0.1 30.2
2016-Aug-17 01:00N 16°49' E 129°47'0 0.2 30.1
2016-Aug-16 22:00N 16°48' E 129°46'0 0.1 30.1
2016-Aug-16 18:00N 16°49' E 129°46'2 0.4 30.1
2016-Aug-16 13:00N 16°49' E 129°44'0 0.3 30.2
2016-Aug-16 12:00N 16°49' E 129°44'0 0.1 30.2
2016-Aug-16 10:00N 16°49' E 129°44'1 0.7 30.2
2016-Aug-16 09:00N 16°48' E 129°43'0 0.1 -0.0
2016-Aug-16 08:00N 16°48' E 129°43'1 0.4 30.2
2016-Aug-16 06:00N 16°48' E 129°43'0 0.0 30.2
2016-Aug-16 05:00N 16°48' E 129°43'0 0.1 30.2
2016-Aug-16 00:00N 16°48' E 129°42'1 0.4 30.1
2016-Aug-15 22:00N 16°49' E 129°42'0 0.3 30.1
2016-Aug-15 21:00N 16°49' E 129°43'2 1.5 30.1
2016-Aug-15 20:00N 16°50' E 129°42'0 0.0 30.1
2016-Aug-15 18:00N 16°50' E 129°42'0 0.2 30.2
2016-Aug-15 17:00N 16°50' E 129°42'0 0.0 30.2
2016-Aug-15 16:00N 16°50' E 129°42'3 0.9 30.2
2016-Aug-15 13:00N 16°52' E 129°40'1 1.0 30.2
2016-Aug-15 12:00N 16°52' E 129°39'0 0.2 30.2
2016-Aug-15 10:00N 16°52' E 129°38'0 0.4 30.3
2016-Aug-15 09:00N 16°52' E 129°38'1 0.9 30.4
2016-Aug-15 08:00N 16°52' E 129°37'1 0.5 30.4
2016-Aug-15 06:00N 16°51' E 129°37'1 0.2 30.5
2016-Aug-15 02:00N 16°51' E 129°38'0 0.0 30.5
2016-Aug-15 01:00N 16°51' E 129°38'1 0.4 30.5
2016-Aug-14 22:00N 16°52' E 129°38'1 0.5 30.2
2016-Aug-14 21:00N 16°52' E 129°39'1 1.5 30.2
2016-Aug-14 20:00N 16°53' E 129°38'1 0.3 30.2
2016-Aug-14 18:00N 16°54' E 129°39'   30.3

Dump ship's entire track history